Time;durP1;ratioP1;P1;durP2;ratioP2;P2;SDS_P1;SDS_P2;PMS_P1;PMS_P2;Temp;Humidity;BMP_temperature;BMP_pressure;BME280_temperature;BME280_humidity;BME280_pressure;Samples;Min_cycle;Max_cycle;Signal;HPM_P1;HPM_P2
2021/06/07 00:01:41;;;;;;;3.92;3.63;;;16.20;99.90;;;;;;4890976;29;20453;-79
2021/06/07 00:04:08;;;;;;;3.75;3.45;;;16.20;99.90;;;;;;4864392;29;20397;-78
2021/06/07 00:06:33;;;;;;;4.50;4.10;;;16.20;99.90;;;;;;4873474;29;20495;-79
2021/06/07 00:08:59;;;;;;;3.53;3.22;;;16.10;99.90;;;;;;4879931;29;20421;-81
2021/06/07 00:11:25;;;;;;;3.78;3.47;;;16.10;99.90;;;;;;4876461;29;20475;-82
2021/06/07 00:13:51;;;;;;;3.80;3.50;;;16.10;99.90;;;;;;4908871;29;20942;-79
2021/06/07 00:16:16;;;;;;;3.70;3.40;;;16.00;99.90;;;;;;4876133;29;20479;-78
2021/06/07 00:18:42;;;;;;;3.90;3.60;;;16.00;99.90;;;;;;4893233;29;20415;-80
2021/06/07 00:21:10;;;;;;;3.90;3.60;;;16.00;99.90;;;;;;4878602;29;20440;-79
2021/06/07 00:23:37;;;;;;;4.22;3.83;;;15.90;99.90;;;;;;4876745;29;20950;-79
2021/06/07 00:26:03;;;;;;;4.40;4.00;;;15.90;99.90;;;;;;4869646;29;20914;-78
2021/06/07 00:28:29;;;;;;;4.27;3.87;;;15.90;99.90;;;;;;4880861;29;20933;-79
2021/06/07 00:30:55;;;;;;;4.38;3.97;;;15.90;99.90;;;;;;4878374;29;20467;-78
2021/06/07 00:33:20;;;;;;;3.97;3.58;;;15.80;99.90;;;;;;4879311;29;20405;-79
2021/06/07 00:35:46;;;;;;;4.20;3.90;;;15.70;99.90;;;;;;4879369;29;20470;-79
2021/06/07 00:38:12;;;;;;;4.47;4.07;;;15.70;99.90;;;;;;4876843;29;20892;-82
2021/06/07 00:40:38;;;;;;;4.77;4.37;;;15.60;99.90;;;;;;4875944;29;22360;-78
2021/06/07 00:43:04;;;;;;;4.83;4.43;;;15.50;99.90;;;;;;4863045;29;20423;-82
2021/06/07 00:45:31;;;;;;;5.47;4.75;;;15.40;99.90;;;;;;4867222;29;20438;-79
2021/06/07 00:47:58;;;;;;;4.60;4.30;;;15.30;99.90;;;;;;4879402;29;20409;-79
2021/06/07 00:50:28;;;;;;;4.43;4.03;;;15.20;99.90;;;;;;4878383;29;20416;-82
2021/06/07 00:53:05;;;;;;;4.28;3.97;;;15.20;99.90;;;;;;4909854;29;20504;-82
2021/06/07 00:55:41;;;;;;;4.18;3.88;;;15.20;99.90;;;;;;4895164;29;20461;-80
2021/06/07 00:58:07;;;;;;;4.18;3.67;;;15.10;99.90;;;;;;4893382;29;20405;-80
2021/06/07 01:00:33;;;;;;;4.60;4.20;;;15.20;99.90;;;;;;4874981;29;20406;-79
2021/06/07 01:02:59;;;;;;;4.32;3.97;;;15.20;99.90;;;;;;4875998;29;20472;-79
2021/06/07 01:05:25;;;;;;;4.45;4.05;;;15.10;99.90;;;;;;4878403;29;20409;-78
2021/06/07 01:07:51;;;;;;;4.75;4.35;;;15.10;99.90;;;;;;4878898;29;20492;-81
2021/06/07 01:10:17;;;;;;;4.63;4.23;;;15.00;99.90;;;;;;4893222;29;21034;-78
2021/06/07 01:12:42;;;;;;;4.68;4.28;;;15.00;99.90;;;;;;4905437;29;20424;-79
2021/06/07 01:15:09;;;;;;;4.40;4.00;;;14.90;99.90;;;;;;4888341;29;20438;-78
2021/06/07 01:17:34;;;;;;;4.80;4.40;;;14.90;99.90;;;;;;4885547;29;20405;-78
2021/06/07 01:20:00;;;;;;;4.00;3.60;;;14.90;99.90;;;;;;4863036;29;20491;-78
2021/06/07 01:22:26;;;;;;;5.32;4.15;;;14.90;99.90;;;;;;4877414;29;20421;-80
2021/06/07 01:24:51;;;;;;;4.83;4.43;;;14.90;99.90;;;;;;4880507;29;20413;-81
2021/06/07 01:27:18;;;;;;;4.20;3.90;;;14.80;99.90;;;;;;4894896;29;20413;-81
2021/06/07 01:29:43;;;;;;;4.72;4.32;;;14.70;99.90;;;;;;4878872;29;20468;-78
2021/06/07 01:32:09;;;;;;;4.93;4.53;;;14.70;99.90;;;;;;4876889;29;20496;-80
2021/06/07 01:34:35;;;;;;;5.20;4.70;;;14.80;99.90;;;;;;4879446;29;20431;-82
2021/06/07 01:37:01;;;;;;;4.87;4.47;;;14.70;99.90;;;;;;4892151;29;20485;-83
2021/06/07 01:39:27;;;;;;;4.60;4.20;;;14.70;99.90;;;;;;4892134;29;20916;-79
2021/06/07 01:41:54;;;;;;;4.82;4.38;;;14.60;99.90;;;;;;4887491;29;20444;-78
2021/06/07 01:44:20;;;;;;;4.70;4.30;;;14.70;99.90;;;;;;4877650;29;20417;-78
2021/06/07 01:46:45;;;;;;;5.15;4.57;;;14.60;99.90;;;;;;4876320;29;20430;-78
2021/06/07 01:49:11;;;;;;;5.03;4.57;;;14.60;99.90;;;;;;4879125;29;20405;-78
2021/06/07 01:51:37;;;;;;;4.95;4.55;;;14.60;99.90;;;;;;4869097;29;20413;-78
2021/06/07 01:54:03;;;;;;;5.00;4.57;;;14.50;99.90;;;;;;4893640;29;20394;-84
2021/06/07 01:56:28;;;;;;;4.47;4.00;;;14.40;99.90;;;;;;4876211;29;20484;-78
2021/06/07 01:58:54;;;;;;;4.50;4.20;;;14.40;99.90;;;;;;4886080;29;20802;-79
2021/06/07 02:01:20;;;;;;;4.95;4.55;;;14.30;99.90;;;;;;4891677;29;20464;-81
2021/06/07 02:03:46;;;;;;;5.43;4.93;;;14.30;99.90;;;;;;4878898;29;20480;-79
2021/06/07 02:06:13;;;;;;;4.85;4.45;;;14.20;99.90;;;;;;4877957;29;20823;-80
2021/06/07 02:08:39;;;;;;;4.83;4.43;;;14.20;99.90;;;;;;4894992;29;20424;-78
2021/06/07 02:11:07;;;;;;;5.05;4.55;;;14.20;99.90;;;;;;4880484;29;20558;-79
2021/06/07 02:13:33;;;;;;;5.00;4.60;;;14.20;99.90;;;;;;4897135;29;20486;-79
2021/06/07 02:16:00;;;;;;;5.20;4.70;;;14.20;99.90;;;;;;4898059;29;20456;-78
2021/06/07 02:18:26;;;;;;;5.00;4.60;;;14.10;99.90;;;;;;4877938;29;21452;-78
2021/06/07 02:20:52;;;;;;;5.03;4.50;;;14.00;99.90;;;;;;4882100;29;20507;-83
2021/06/07 02:23:17;;;;;;;5.60;5.10;;;14.00;99.90;;;;;;4883400;29;20409;-78
2021/06/07 02:25:43;;;;;;;5.55;5.05;;;14.00;99.90;;;;;;4914515;29;20464;-84
2021/06/07 02:28:13;;;;;;;6.27;5.27;;;13.90;99.90;;;;;;4882070;29;20778;-78
2021/06/07 02:30:38;;;;;;;5.35;4.38;;;13.90;99.90;;;;;;4879339;29;20953;-79
2021/06/07 02:33:04;;;;;;;5.43;4.87;;;13.90;99.90;;;;;;4881610;29;20412;-79
2021/06/07 02:35:30;;;;;;;6.60;4.95;;;13.80;99.90;;;;;;4880782;29;20430;-79
2021/06/07 02:37:55;;;;;;;5.77;5.20;;;13.80;99.90;;;;;;4873090;29;20405;-79
2021/06/07 02:40:23;;;;;;;5.25;4.75;;;13.90;99.90;;;;;;4872454;29;20409;-79
2021/06/07 02:42:49;;;;;;;5.28;4.78;;;13.80;99.90;;;;;;4862862;29;20414;-85
2021/06/07 02:45:15;;;;;;;5.53;5.03;;;13.90;99.90;;;;;;4884501;29;20393;-82
2021/06/07 02:47:42;;;;;;;5.80;5.30;;;13.80;99.90;;;;;;4897858;29;20423;-78
2021/06/07 02:50:09;;;;;;;5.97;5.15;;;13.70;99.90;;;;;;4882227;29;20405;-81
2021/06/07 02:52:34;;;;;;;5.47;4.97;;;13.80;99.90;;;;;;4896431;29;20475;-82
2021/06/07 02:55:00;;;;;;;5.90;5.40;;;13.80;99.90;;;;;;4890583;29;20484;-80
2021/06/07 02:57:26;;;;;;;5.55;5.05;;;13.80;99.90;;;;;;4881849;29;21000;-79
2021/06/07 02:59:51;;;;;;;5.53;5.03;;;13.70;99.90;;;;;;4865320;29;20409;-82
2021/06/07 03:02:17;;;;;;;5.47;4.97;;;13.70;99.90;;;;;;4894240;29;21013;-79
2021/06/07 03:04:43;;;;;;;5.70;5.20;;;13.60;99.90;;;;;;4868360;29;20417;-79
2021/06/07 03:07:09;;;;;;;5.60;5.10;;;13.60;99.90;;;;;;4894793;29;20411;-80
2021/06/07 03:09:34;;;;;;;5.35;4.85;;;13.60;99.90;;;;;;4881333;29;20476;-78
2021/06/07 03:12:02;;;;;;;6.27;5.67;;;13.60;99.90;;;;;;4878676;29;20406;-80
2021/06/07 03:14:28;;;;;;;5.60;5.10;;;13.60;99.90;;;;;;4865374;29;20425;-78
2021/06/07 03:16:54;;;;;;;5.55;5.03;;;13.60;99.90;;;;;;4876040;29;20415;-84
2021/06/07 03:19:19;;;;;;;6.07;5.47;;;13.60;99.90;;;;;;4877925;29;20590;-80
2021/06/07 03:21:45;;;;;;;6.18;5.57;;;13.60;99.90;;;;;;4907684;29;20413;-78
2021/06/07 03:24:10;;;;;;;6.37;5.77;;;13.70;99.90;;;;;;4878588;29;20406;-79
2021/06/07 03:26:36;;;;;;;5.75;5.25;;;13.60;99.90;;;;;;4866114;29;20428;-78
2021/06/07 03:29:02;;;;;;;6.27;5.67;;;13.60;99.90;;;;;;4901073;29;20419;-78
2021/06/07 03:31:27;;;;;;;5.45;4.93;;;13.60;99.90;;;;;;4874994;29;20943;-77
2021/06/07 03:33:53;;;;;;;6.23;5.50;;;13.60;99.90;;;;;;4892117;29;20409;-80
2021/06/07 03:36:20;;;;;;;7.38;4.88;;;13.60;99.90;;;;;;4897041;29;20484;-78
2021/06/07 03:38:46;;;;;;;5.82;5.22;;;13.60;99.90;;;;;;4896874;29;20405;-78
2021/06/07 03:41:11;;;;;;;5.73;5.23;;;13.60;99.90;;;;;;4875714;29;20928;-80
2021/06/07 03:43:37;;;;;;;5.43;4.93;;;13.70;99.90;;;;;;4861297;29;20840;-78
2021/06/07 03:46:03;;;;;;;5.80;5.30;;;13.70;99.90;;;;;;4879379;29;20409;-78
2021/06/07 03:48:29;;;;;;;7.30;5.68;;;13.80;99.90;;;;;;4880403;29;20408;-80
2021/06/07 03:50:54;;;;;;;5.68;5.18;;;13.80;99.90;;;;;;4879329;29;20417;-78
2021/06/07 03:53:20;;;;;;;5.93;5.43;;;13.80;99.90;;;;;;4877851;29;20459;-79
2021/06/07 03:55:46;;;;;;;6.53;5.93;;;13.80;99.90;;;;;;4896056;29;20397;-79
2021/06/07 03:58:11;;;;;;;6.27;5.17;;;13.90;99.90;;;;;;4896795;29;20425;-82
2021/06/07 04:00:38;;;;;;;6.32;5.70;;;13.90;99.90;;;;;;4879856;29;20417;-81
2021/06/07 04:03:08;;;;;;;6.47;5.47;;;13.90;99.90;;;;;;4893919;29;20481;-80
2021/06/07 04:05:34;;;;;;;6.07;5.47;;;14.00;99.90;;;;;;4862616;29;20407;-78
2021/06/07 04:08:00;;;;;;;6.33;5.73;;;14.10;99.90;;;;;;4909266;29;20492;-79
2021/06/07 04:10:26;;;;;;;6.72;6.03;;;14.20;99.90;;;;;;4879946;29;20412;-78
2021/06/07 04:12:52;;;;;;;6.80;6.13;;;14.30;99.90;;;;;;4863726;29;20406;-79
2021/06/07 04:15:19;;;;;;;6.22;5.65;;;14.40;99.90;;;;;;4866222;29;20397;-78
2021/06/07 04:17:45;;;;;;;6.50;5.90;;;14.50;99.90;;;;;;4879926;29;20401;-78
2021/06/07 04:20:12;;;;;;;6.18;5.60;;;14.50;99.90;;;;;;4879020;29;20898;-84
2021/06/07 04:22:38;;;;;;;6.85;6.15;;;14.50;99.90;;;;;;4876687;29;20420;-78
2021/06/07 04:25:05;;;;;;;5.95;5.45;;;14.70;99.90;;;;;;4892615;29;20405;-78
2021/06/07 04:27:30;;;;;;;5.90;5.35;;;14.70;99.90;;;;;;4894765;29;20409;-80
2021/06/07 04:29:56;;;;;;;6.38;5.78;;;14.90;99.90;;;;;;4882659;29;20772;-81
2021/06/07 04:32:22;;;;;;;5.53;5.03;;;15.00;99.90;;;;;;4877455;29;20421;-77
2021/06/07 04:34:47;;;;;;;5.55;5.05;;;15.10;99.90;;;;;;4879082;29;20417;-78
2021/06/07 04:37:13;;;;;;;4.97;4.47;;;15.20;99.90;;;;;;4879942;29;20393;-80
2021/06/07 04:39:39;;;;;;;5.93;5.32;;;15.40;99.90;;;;;;4877016;29;20838;-85
2021/06/07 04:42:05;;;;;;;5.37;4.87;;;15.50;99.90;;;;;;4874346;29;20418;-83
2021/06/07 04:44:31;;;;;;;5.78;5.03;;;15.70;99.90;;;;;;4906732;29;20405;-79
2021/06/07 04:46:57;;;;;;;6.37;5.17;;;15.80;99.90;;;;;;4877653;29;20461;-77
2021/06/07 04:49:22;;;;;;;4.70;4.30;;;15.80;99.90;;;;;;4878327;29;21117;-78
2021/06/07 04:51:48;;;;;;;5.17;4.67;;;16.00;99.90;;;;;;4861581;29;20464;-78
2021/06/07 04:54:14;;;;;;;5.25;4.75;;;16.10;99.90;;;;;;4876706;29;20411;-79
2021/06/07 04:56:39;;;;;;;8.47;5.63;;;16.20;99.90;;;;;;4878665;29;20397;-82
2021/06/07 04:59:05;;;;;;;4.55;4.15;;;16.30;99.90;;;;;;4879759;29;20397;-79
2021/06/07 05:01:30;;;;;;;4.67;4.27;;;16.40;99.90;;;;;;4865410;29;20425;-79
2021/06/07 05:03:56;;;;;;;4.97;4.50;;;16.50;99.90;;;;;;4891127;29;20457;-78
2021/06/07 05:06:22;;;;;;;4.70;4.30;;;16.60;99.90;;;;;;4872573;29;20409;-79
2021/06/07 05:08:48;;;;;;;4.73;4.33;;;16.60;99.90;;;;;;4892651;29;20472;-79
2021/06/07 05:11:15;;;;;;;4.80;4.40;;;16.90;99.90;;;;;;4876209;29;20414;-78
2021/06/07 05:13:40;;;;;;;4.70;4.30;;;17.10;99.90;;;;;;4875722;29;20924;-78
2021/06/07 05:16:06;;;;;;;5.40;4.22;;;17.20;99.90;;;;;;4858376;29;20404;-79
2021/06/07 05:18:33;;;;;;;5.45;4.95;;;17.40;99.90;;;;;;4877353;29;22736;-80
2021/06/07 05:20:59;;;;;;;5.30;4.80;;;17.60;99.90;;;;;;4852645;29;20401;-80
2021/06/07 05:23:24;;;;;;;4.87;4.47;;;17.70;99.90;;;;;;4877743;29;20421;-83
2021/06/07 05:25:50;;;;;;;5.30;4.80;;;17.70;99.90;;;;;;4877134;29;20410;-83
2021/06/07 05:28:16;;;;;;;5.50;5.00;;;17.80;99.90;;;;;;4893453;29;20409;-80
2021/06/07 05:30:43;;;;;;;4.82;4.43;;;17.90;99.90;;;;;;4877948;29;20425;-79
2021/06/07 05:33:09;;;;;;;4.88;4.47;;;18.10;99.90;;;;;;4878981;29;20937;-80
2021/06/07 05:35:37;;;;;;;5.27;4.83;;;18.30;99.90;;;;;;4879597;29;20429;-80
2021/06/07 05:38:04;;;;;;;5.07;4.57;;;18.40;99.90;;;;;;4880128;29;20424;-80
2021/06/07 05:40:31;;;;;;;4.70;4.18;;;18.60;99.90;;;;;;4861911;29;20413;-80
2021/06/07 05:42:56;;;;;;;4.70;4.30;;;18.80;99.90;;;;;;4871778;29;20906;-80
2021/06/07 05:45:22;;;;;;;4.97;4.57;;;19.10;99.90;;;;;;4892339;29;20397;-80
2021/06/07 05:47:49;;;;;;;5.03;4.37;;;18.90;99.90;;;;;;4880269;28;20404;-80
2021/06/07 05:50:19;;;;;;;5.13;4.72;;;19.00;99.90;;;;;;4900297;29;20409;-80
2021/06/07 05:52:47;;;;;;;4.80;4.30;;;19.30;99.90;;;;;;4893466;29;20413;-80
2021/06/07 05:55:17;;;;;;;4.38;4.00;;;19.30;99.90;;;;;;4878620;29;20464;-80
2021/06/07 05:57:43;;;;;;;4.43;4.05;;;19.40;99.90;;;;;;4894926;29;20440;-80
2021/06/07 06:00:09;;;;;;;4.20;3.90;;;19.50;99.90;;;;;;4876855;29;20431;-80
2021/06/07 06:02:34;;;;;;;4.20;3.80;;;19.60;99.90;;;;;;4857337;29;20431;-80
2021/06/07 06:05:01;;;;;;;3.83;3.53;;;19.60;99.90;;;;;;4906301;29;20465;-80
2021/06/07 06:07:26;;;;;;;3.83;3.45;;;19.90;99.90;;;;;;4865077;29;20409;-81
2021/06/07 06:09:52;;;;;;;4.43;4.03;;;20.10;99.90;;;;;;4880942;29;20477;-82
2021/06/07 06:12:18;;;;;;;3.93;3.63;;;20.30;99.90;;;;;;4881834;29;20402;-82
2021/06/07 06:14:43;;;;;;;3.47;3.20;;;20.30;99.90;;;;;;4877943;29;20482;-79
2021/06/07 06:17:09;;;;;;;3.72;3.42;;;20.40;99.90;;;;;;4869602;29;20466;-80
2021/06/07 06:19:36;;;;;;;4.20;3.80;;;20.40;99.90;;;;;;4886383;29;20453;-86
2021/06/07 06:22:05;;;;;;;4.07;3.67;;;20.40;99.90;;;;;;4890590;29;20421;-81
2021/06/07 06:24:31;;;;;;;4.28;3.83;;;20.40;99.90;;;;;;4887196;29;20405;-80
2021/06/07 06:26:56;;;;;;;3.67;3.37;;;20.50;99.90;;;;;;4879449;29;20401;-79
2021/06/07 06:29:22;;;;;;;3.80;3.50;;;20.90;99.90;;;;;;4876425;29;20482;-80
2021/06/07 06:31:47;;;;;;;4.27;3.87;;;21.10;99.90;;;;;;4874085;29;20407;-81
2021/06/07 06:34:13;;;;;;;3.38;3.08;;;21.10;99.90;;;;;;4894261;29;20429;-79
2021/06/07 06:36:39;;;;;;;3.60;3.30;;;21.10;99.90;;;;;;4879306;29;20485;-81
2021/06/07 06:39:05;;;;;;;3.65;3.35;;;21.20;99.90;;;;;;4879245;29;20934;-80
2021/06/07 06:41:31;;;;;;;3.23;3.00;;;21.00;99.90;;;;;;4874070;29;20415;-79
2021/06/07 06:43:57;;;;;;;3.80;3.50;;;21.20;99.90;;;;;;4890391;29;20405;-79
2021/06/07 06:46:22;;;;;;;3.60;3.30;;;21.40;99.90;;;;;;4854227;29;20466;-79
2021/06/07 06:48:48;;;;;;;3.70;3.40;;;21.40;99.90;;;;;;4877339;29;20424;-82
2021/06/07 06:51:13;;;;;;;4.20;3.90;;;21.50;99.90;;;;;;4875635;29;20462;-81
2021/06/07 06:53:39;;;;;;;4.13;3.25;;;21.50;99.90;;;;;;4878382;29;20386;-80
2021/06/07 06:56:05;;;;;;;3.78;3.47;;;21.60;99.90;;;;;;4887037;29;20408;-84
2021/06/07 06:58:31;;;;;;;4.88;3.70;;;22.00;99.90;;;;;;4884591;29;20405;-81
2021/06/07 07:00:57;;;;;;;4.13;3.10;;;22.20;99.90;;;;;;4897172;29;20404;-85
2021/06/07 07:03:23;;;;;;;3.55;3.33;;;22.30;99.90;;;;;;4900507;29;20529;-88
2021/06/07 07:05:48;;;;;;;3.00;2.80;;;22.20;99.90;;;;;;4905020;29;20400;-82
2021/06/07 07:08:14;;;;;;;3.53;3.22;;;22.30;99.90;;;;;;4890102;29;20462;-81
2021/06/07 07:10:41;;;;;;;3.85;3.17;;;22.40;99.90;;;;;;4889065;29;20803;-80
2021/06/07 07:13:07;;;;;;;3.57;3.27;;;22.50;99.90;;;;;;4882411;29;20413;-80
2021/06/07 07:15:34;;;;;;;2.90;2.70;;;22.80;99.90;;;;;;4881121;29;20485;-79
2021/06/07 07:18:03;;;;;;;3.28;3.08;;;23.10;99.90;;;;;;4907246;29;20714;-82
2021/06/07 07:20:34;;;;;;;2.72;2.53;;;23.20;99.90;;;;;;4881443;29;20492;-80
2021/06/07 07:23:05;;;;;;;2.95;2.75;;;23.20;99.90;;;;;;4898934;29;20494;-80
2021/06/07 07:25:34;;;;;;;3.47;3.17;;;23.50;99.90;;;;;;4895153;29;20409;-81
2021/06/07 07:28:06;;;;;;;2.90;2.70;;;23.60;99.90;;;;;;4877253;28;20471;-83
2021/06/07 07:30:38;;;;;;;3.20;2.90;;;24.00;99.90;;;;;;4022770;29;10001656;-80
2021/06/07 07:33:17;;;;;;;2.72;2.53;;;24.30;99.90;;;;;;4883998;29;20408;-81
2021/06/07 07:35:52;;;;;;;2.90;2.60;;;24.40;99.90;;;;;;4882384;29;20420;-82
2021/06/07 07:38:24;;;;;;;4.93;2.87;;;24.20;99.90;;;;;;4867870;29;20992;-80
2021/06/07 07:40:57;;;;;;;2.40;2.20;;;24.40;99.90;;;;;;4874459;29;20421;-81
2021/06/07 07:43:30;;;;;;;3.00;2.80;;;24.30;99.90;;;;;;4869189;29;20445;-81
2021/06/07 07:45:59;;;;;;;3.03;2.63;;;24.40;99.90;;;;;;4895186;29;20476;-81
2021/06/07 07:48:25;;;;;;;2.63;2.42;;;24.20;99.90;;;;;;4881800;29;20480;-80
2021/06/07 07:51:07;;;;;;;2.49;2.34;;;24.60;99.90;;;;;;4193976;29;10001317;-81
2021/06/07 07:53:43;;;;;;;4.20;2.60;;;24.60;99.90;;;;;;4899029;29;20405;-82
2021/06/07 07:56:27;;;;;;;3.00;2.70;;;24.90;99.90;;;;;;4897770;29;20415;-82
2021/06/07 07:59:24;;;;;;;3.65;2.55;;;25.30;99.90;;;;;;4889267;29;20506;-83
2021/06/07 08:02:24;;;;;;;2.60;2.40;;;25.50;99.90;;;;;;4912843;29;20987;-81
2021/06/07 08:05:41;;;;;;;2.67;2.47;;;25.70;99.90;;;;;;4899495;29;20463;-81
2021/06/07 08:18:42;;;;;;;2.63;2.42;;;26.10;99.90;;;;;;4900650;29;20412;-81
2021/06/07 08:22:03;;;;;;;2.50;2.30;;;26.40;99.90;;;;;;4898475;29;20499;-81
2021/06/07 08:25:22;;;;;;;4.03;2.60;;;26.80;99.90;;;;;;4892988;29;20859;-81
2021/06/07 08:29:18;;;;;;;2.58;2.38;;;27.10;99.90;;;;;;4912444;28;20402;-82
2021/06/07 08:36:24;;;;;;;2.58;2.38;;;27.40;97.10;;;;;;4890199;29;20425;-81
2021/06/07 08:38:51;;;;;;;2.83;2.30;;;27.70;97.50;;;;;;4878826;29;20407;-82
2021/06/07 08:41:23;;;;;;;2.55;2.35;;;28.00;96.60;;;;;;4878907;29;20402;-81
2021/06/07 08:48:13;;;;;;;2.40;2.20;;;27.10;92.10;;;;;;4910477;29;20440;-83
2021/06/07 08:50:39;;;;;;;2.10;1.90;;;27.40;91.80;;;;;;4881249;29;20496;-81
2021/06/07 08:53:05;;;;;;;2.40;2.20;;;27.80;91.90;;;;;;4896401;29;20409;-82
2021/06/07 08:55:33;;;;;;;2.20;2.10;;;28.20;91.70;;;;;;4866692;29;20405;-81
2021/06/07 08:58:09;;;;;;;2.38;2.20;;;28.70;90.20;;;;;;4881965;29;20523;-81
2021/06/07 09:04:57;;;;;;;2.20;2.00;;;27.80;87.30;;;;;;4995393;23;20466;-79
2021/06/07 09:07:23;;;;;;;2.22;2.03;;;28.10;87.70;;;;;;4895954;29;20410;-81
2021/06/07 09:10:04;;;;;;;2.40;1.90;;;28.40;89.20;;;;;;4897456;29;20405;-82
2021/06/07 09:12:30;;;;;;;2.58;2.00;;;29.00;85.90;;;;;;4901033;29;20500;-87
2021/06/07 09:14:56;;;;;;;2.07;1.90;;;29.30;82.80;;;;;;4919891;29;20400;-87
2021/06/07 09:17:22;;;;;;;2.37;2.20;;;29.10;84.90;;;;;;4902638;29;20400;-85
2021/06/07 09:20:14;;;;;;;2.42;2.22;;;29.00;81.10;;;;;;4887336;29;20401;-81
2021/06/07 09:23:08;;;;;;;1.95;1.85;;;29.00;77.60;;;;;;4916219;29;20397;-84
2021/06/07 09:25:39;;;;;;;2.40;2.00;;;28.80;79.20;;;;;;4931925;29;20452;-86
2021/06/07 09:28:11;;;;;;;2.25;2.05;;;28.80;83.10;;;;;;4909163;28;20423;-86
2021/06/07 09:30:39;;;;;;;2.45;2.25;;;29.20;81.10;;;;;;4948126;28;20401;-86
2021/06/07 09:33:23;;;;;;;2.30;2.00;;;29.40;80.10;;;;;;4919772;29;20421;-86
2021/06/07 09:36:24;;;;;;;2.40;2.20;;;29.70;82.70;;;;;;4918459;29;20466;-85
2021/06/07 09:39:28;;;;;;;2.15;1.95;;;30.00;76.90;;;;;;4917009;29;20476;-85
2021/06/07 09:42:08;;;;;;;2.30;2.10;;;30.20;77.80;;;;;;4924994;29;20442;-88
2021/06/07 09:44:51;;;;;;;2.22;2.03;;;30.10;79.00;;;;;;4924785;28;20467;-85
2021/06/07 09:47:21;;;;;;;2.00;1.90;;;30.20;75.80;;;;;;4907154;29;20405;-80
2021/06/07 09:50:05;;;;;;;1.90;1.80;;;30.10;72.20;;;;;;4881237;29;20407;-80
2021/06/07 09:52:44;;;;;;;2.30;2.10;;;29.80;72.00;;;;;;4876865;29;20421;-80
2021/06/07 09:55:11;;;;;;;2.20;2.05;;;29.70;73.60;;;;;;4879381;29;20429;-81
2021/06/07 09:57:52;;;;;;;2.05;1.95;;;29.90;73.70;;;;;;4881621;29;20807;-80
2021/06/07 10:00:42;;;;;;;2.63;2.17;;;30.30;75.70;;;;;;4877150;29;20481;-79
2021/06/07 10:03:21;;;;;;;2.30;2.10;;;30.70;74.60;;;;;;4910139;29;21130;-85
2021/06/07 10:05:47;;;;;;;2.10;1.90;;;31.10;75.10;;;;;;4895807;29;20460;-85
2021/06/07 10:08:13;;;;;;;2.30;2.10;;;31.50;71.50;;;;;;4878125;29;20488;-82
2021/06/07 10:10:39;;;;;;;2.17;2.08;;;31.10;68.70;;;;;;4878744;29;20914;-85
2021/06/07 10:13:06;;;;;;;2.28;2.10;;;31.40;69.80;;;;;;4878858;29;20959;-84
2021/06/07 10:15:42;;;;;;;2.30;2.15;;;31.70;72.60;;;;;;4876853;29;20395;-82
2021/06/07 10:18:13;;;;;;;1.98;1.85;;;31.90;69.60;;;;;;4864632;29;20561;-81
2021/06/07 10:20:51;;;;;;;16.00;3.63;;;32.10;68.00;;;;;;4875562;29;20456;-83
2021/06/07 10:23:22;;;;;;;1.95;1.85;;;32.30;69.70;;;;;;4879557;29;20450;-82
2021/06/07 10:25:48;;;;;;;1.73;1.63;;;32.90;68.80;;;;;;4876430;29;20400;-82
2021/06/07 10:28:14;;;;;;;1.73;1.63;;;33.00;66.50;;;;;;4876874;29;20424;-84
2021/06/07 10:30:42;;;;;;;2.00;1.90;;;33.10;67.60;;;;;;4872437;29;20456;-86
2021/06/07 10:33:24;;;;;;;2.25;1.55;;;33.00;66.10;;;;;;4865679;29;20457;-85
2021/06/07 10:35:50;;;;;;;2.90;2.17;;;32.80;60.10;;;;;;4898015;29;20522;-83
2021/06/07 10:38:16;;;;;;;2.10;1.90;;;33.00;63.20;;;;;;4881995;29;20413;-80
2021/06/07 10:40:42;;;;;;;2.70;1.70;;;33.00;59.70;;;;;;4877357;29;20422;-83
2021/06/07 10:43:09;;;;;;;1.83;1.70;;;33.00;61.50;;;;;;4880697;29;20416;-84
2021/06/07 10:45:38;;;;;;;1.80;1.70;;;32.90;58.00;;;;;;4879766;29;20409;-82
2021/06/07 10:48:07;;;;;;;1.60;1.50;;;33.00;59.20;;;;;;4880219;29;20436;-84
2021/06/07 10:50:35;;;;;;;1.70;1.60;;;33.20;58.80;;;;;;4878340;29;20401;-85
2021/06/07 10:53:02;;;;;;;1.70;1.60;;;33.70;58.10;;;;;;4891810;29;20476;-82
2021/06/07 10:55:39;;;;;;;1.90;1.73;;;34.00;55.00;;;;;;4881021;29;20448;-83
2021/06/07 10:58:06;;;;;;;1.67;1.58;;;33.70;54.90;;;;;;4881006;29;20416;-84
2021/06/07 11:00:40;;;;;;;3.20;1.77;;;33.70;57.50;;;;;;4891601;29;20400;-84
2021/06/07 11:03:26;;;;;;;1.45;1.38;;;33.80;54.90;;;;;;4891190;29;20449;-82
2021/06/07 11:05:54;;;;;;;1.60;1.50;;;34.00;54.90;;;;;;4891544;29;20434;-82
2021/06/07 11:08:30;;;;;;;1.70;1.60;;;34.00;53.30;;;;;;4881176;29;20413;-81
2021/06/07 11:11:16;;;;;;;1.70;1.60;;;34.20;51.10;;;;;;4869601;29;20978;-80
2021/06/07 11:13:54;;;;;;;1.60;1.50;;;34.30;53.70;;;;;;4894480;29;20412;-81
2021/06/07 11:16:29;;;;;;;1.70;1.60;;;34.20;52.10;;;;;;4878902;29;20928;-81
2021/06/07 11:18:58;;;;;;;2.05;1.80;;;34.60;53.10;;;;;;4894588;29;20421;-79
2021/06/07 11:21:26;;;;;;;1.75;1.65;;;34.90;52.10;;;;;;4885702;29;20427;-82
2021/06/07 11:23:52;;;;;;;2.00;1.80;;;34.90;52.00;;;;;;4894708;29;20984;-83
2021/06/07 11:26:33;;;;;;;2.40;1.93;;;35.10;51.50;;;;;;4881091;29;20401;-83
2021/06/07 11:29:00;;;;;;;2.10;1.90;;;35.20;52.90;;;;;;4884414;29;20450;-81
2021/06/07 11:31:28;;;;;;;2.03;1.93;;;35.50;51.20;;;;;;4893253;29;20440;-82
2021/06/07 11:33:55;;;;;;;1.70;1.60;;;35.40;50.40;;;;;;4907450;29;20417;-81
2021/06/07 11:36:59;;;;;;;1.90;1.73;;;35.50;52.10;;;;;;4894931;29;20461;-82
2021/06/07 11:39:29;;;;;;;3.10;1.90;;;35.50;51.60;;;;;;4901143;29;20784;-80
2021/06/07 11:42:01;;;;;;;1.73;1.63;;;36.00;49.50;;;;;;4876807;29;20453;-81
2021/06/07 11:44:46;;;;;;;1.90;1.80;;;36.00;50.50;;;;;;4909272;29;20480;-83
2021/06/07 11:47:34;;;;;;;1.70;1.60;;;36.20;48.60;;;;;;4895833;29;20919;-83
2021/06/07 11:50:00;;;;;;;1.98;1.83;;;36.30;47.50;;;;;;4897513;29;21069;-82
2021/06/07 11:52:32;;;;;;;1.70;1.60;;;36.20;47.30;;;;;;4910221;29;20481;-86
2021/06/07 11:55:16;;;;;;;1.60;1.50;;;36.10;47.30;;;;;;4913092;29;20492;-81
2021/06/07 11:57:42;;;;;;;1.50;1.40;;;36.30;46.90;;;;;;4893305;29;20800;-82
2021/06/07 12:00:08;;;;;;;2.10;1.90;;;36.00;47.90;;;;;;4879599;29;20412;-85
2021/06/07 12:02:34;;;;;;;2.10;1.90;;;36.30;49.80;;;;;;4865549;29;20473;-84
2021/06/07 12:05:10;;;;;;;1.77;1.67;;;36.70;48.10;;;;;;4897035;29;20409;-81
2021/06/07 12:07:36;;;;;;;1.67;1.58;;;37.00;46.40;;;;;;4893020;29;20457;-82
2021/06/07 12:10:02;;;;;;;1.80;1.70;;;37.30;46.20;;;;;;4883519;29;20493;-83
2021/06/07 12:12:28;;;;;;;2.00;1.70;;;37.00;44.10;;;;;;4899326;29;20420;-87
2021/06/07 12:14:54;;;;;;;1.80;1.70;;;37.20;47.40;;;;;;4885270;29;20411;-85
2021/06/07 12:17:21;;;;;;;1.70;1.60;;;37.40;46.90;;;;;;4900516;28;20412;-80
2021/06/07 12:19:56;;;;;;;1.92;1.80;;;37.60;44.10;;;;;;4884644;29;20397;-81
2021/06/07 12:22:26;;;;;;;1.60;1.50;;;37.40;41.60;;;;;;4886730;29;20507;-82
2021/06/07 12:24:57;;;;;;;1.73;1.63;;;37.60;44.10;;;;;;4884578;29;20486;-84
2021/06/07 12:30:17;;;;;;;2.08;1.88;;;37.20;42.50;;;;;;4860468;29;20509;-85
2021/06/07 12:32:42;;;;;;;2.58;2.00;;;37.40;43.40;;;;;;4879148;29;20413;-82
2021/06/07 12:35:11;;;;;;;1.63;1.53;;;37.30;44.10;;;;;;4894948;29;20420;-89
2021/06/07 12:37:37;;;;;;;1.75;1.65;;;37.60;43.60;;;;;;4916578;29;20420;-84
2021/06/07 12:40:10;;;;;;;1.48;1.42;;;37.90;45.60;;;;;;4897859;29;20876;-85
2021/06/07 12:42:36;;;;;;;1.98;1.80;;;37.90;43.50;;;;;;4899236;29;20428;-84
2021/06/07 12:45:16;;;;;;;1.70;1.60;;;37.80;42.20;;;;;;4889769;29;20956;-83
2021/06/07 12:47:42;;;;;;;2.28;1.95;;;37.90;42.60;;;;;;4882740;29;20421;-81
2021/06/07 12:50:14;;;;;;;1.80;1.70;;;37.70;40.50;;;;;;4884281;29;20408;-81
2021/06/07 12:52:39;;;;;;;2.08;1.70;;;37.90;39.90;;;;;;4881256;29;20445;-80
2021/06/07 12:55:06;;;;;;;1.90;1.80;;;38.00;41.80;;;;;;4882947;29;20448;-81
2021/06/07 12:57:32;;;;;;;1.55;1.45;;;38.00;39.50;;;;;;4869325;29;20413;-85
2021/06/07 12:59:57;;;;;;;2.20;2.00;;;38.00;41.30;;;;;;4899638;29;20397;-82
2021/06/07 13:02:33;;;;;;;2.10;1.90;;;38.10;42.10;;;;;;4879483;29;20440;-85
2021/06/07 13:04:58;;;;;;;1.92;1.83;;;38.00;42.20;;;;;;4885994;29;20417;-84
2021/06/07 13:07:24;;;;;;;2.00;1.90;;;38.20;39.40;;;;;;4874032;29;20462;-81
2021/06/07 13:09:51;;;;;;;2.00;1.90;;;38.00;38.60;;;;;;4881126;29;20411;-84
2021/06/07 13:12:24;;;;;;;2.70;2.03;;;37.90;39.70;;;;;;4882857;29;20488;-83
2021/06/07 13:14:54;;;;;;;1.87;1.67;;;38.00;40.30;;;;;;4883590;29;20411;-81
2021/06/07 13:17:20;;;;;;;3.38;2.00;;;37.90;39.30;;;;;;4882875;29;20501;-84
2021/06/07 13:19:58;;;;;;;1.75;1.65;;;37.50;41.20;;;;;;4880930;29;20410;-81
2021/06/07 13:22:24;;;;;;;1.92;1.83;;;37.70;41.20;;;;;;4898636;29;20995;-86
2021/06/07 13:24:50;;;;;;;2.13;1.92;;;38.20;42.60;;;;;;4882977;29;20406;-82